Time;durP1;ratioP1;P1;durP2;ratioP2;P2;SDS_P1;SDS_P2;PMS_P1;PMS_P2;Temp;Humidity;BMP_temperature;BMP_pressure;BME280_temperature;BME280_humidity;BME280_pressure;Samples;Min_cycle;Max_cycle;Signal;HPM_P1;HPM_P2
2023/01/26 00:01:47;;;;;;;47.95;21.40;;;;;;;0.20;100.00;92502.28;5079848;28;20052;-79
2023/01/26 00:04:13;;;;;;;47.42;22.30;;;;;;;0.21;100.00;92503.06;5079908;28;20127;-78
2023/01/26 00:06:38;;;;;;;45.55;21.05;;;;;;;0.22;100.00;92498.69;5054623;28;20398;-78
2023/01/26 00:09:04;;;;;;;53.83;22.02;;;;;;;0.21;100.00;92503.06;5041134;28;20065;-78
2023/01/26 00:11:29;;;;;;;47.53;21.40;;;;;;;0.22;100.00;92499.47;5060528;28;20104;-78
2023/01/26 00:13:58;;;;;;;52.00;22.58;;;;;;;0.24;100.00;92499.25;5042703;28;20095;-77
2023/01/26 00:16:24;;;;;;;44.30;20.20;;;;;;;0.23;100.00;92490.75;5046754;28;20067;-78
2023/01/26 00:18:50;;;;;;;49.70;21.67;;;;;;;0.24;100.00;92492.31;5023808;28;20060;-77
2023/01/26 00:21:19;;;;;;;48.13;21.63;;;;;;;0.23;100.00;92487.41;5063417;28;20033;-79
2023/01/26 00:23:45;;;;;;;50.25;22.65;;;;;;;0.26;100.00;92489.50;5075929;28;20070;-78
2023/01/26 00:26:15;;;;;;;44.58;21.33;;;;;;;0.27;100.00;92480.78;5058821;28;20057;-78
2023/01/26 00:28:41;;;;;;;41.95;20.88;;;;;;;0.29;100.00;92478.75;5041033;28;20045;-78
2023/01/26 00:31:11;;;;;;;46.33;21.27;;;;;;;0.32;100.00;92483.47;5040147;28;20054;-78
2023/01/26 00:33:37;;;;;;;45.60;21.73;;;;;;;0.33;100.00;92475.50;5057260;28;20051;-78
2023/01/26 00:36:03;;;;;;;48.40;21.30;;;;;;;0.38;100.00;92477.41;5057694;28;20041;-78
2023/01/26 00:38:30;;;;;;;44.20;20.10;;;;;;;0.36;100.00;92469.13;5041279;28;20067;-76
2023/01/26 00:40:55;;;;;;;43.63;21.20;;;;;;;0.37;100.00;92468.13;5040081;28;20071;-78
2023/01/26 00:43:21;;;;;;;41.78;20.27;;;;;;;0.37;100.00;92474.06;5073862;28;20041;-78
2023/01/26 00:45:47;;;;;;;41.25;20.00;;;;;;;0.35;100.00;92462.41;5077421;28;20501;-78
2023/01/26 00:48:13;;;;;;;48.70;20.75;;;;;;;0.38;100.00;92457.63;5043319;28;20033;-77
2023/01/26 00:50:38;;;;;;;39.70;19.27;;;;;;;0.39;100.00;92464.31;5056165;28;20120;-78
2023/01/26 00:53:04;;;;;;;41.30;19.38;;;;;;;0.39;100.00;92468.69;5047969;28;20051;-77
2023/01/26 00:55:32;;;;;;;41.70;20.77;;;;;;;0.39;100.00;92459.16;5079022;28;20041;-78
2023/01/26 00:57:59;;;;;;;43.42;20.13;;;;;;;0.41;100.00;92457.16;5041678;28;20099;-77
2023/01/26 01:00:25;;;;;;;43.72;18.52;;;;;;;0.44;100.00;92461.06;5057492;28;20106;-77
2023/01/26 01:02:51;;;;;;;48.03;19.73;;;;;;;0.48;100.00;92456.28;5041449;28;20079;-78
2023/01/26 01:05:17;;;;;;;48.70;21.45;;;;;;;0.46;100.00;92453.91;5059582;28;20040;-78
2023/01/26 01:07:42;;;;;;;45.20;21.20;;;;;;;0.46;100.00;92456.50;5060494;28;20045;-77
2023/01/26 01:10:09;;;;;;;49.55;22.02;;;;;;;0.46;100.00;92459.06;5039911;28;20044;-77
2023/01/26 01:12:34;;;;;;;52.63;23.05;;;;;;;0.46;100.00;92453.91;5058367;28;20098;-77
2023/01/26 01:15:00;;;;;;;46.30;22.55;;;;;;;0.46;100.00;92447.97;5040302;28;20041;-78
2023/01/26 01:17:26;;;;;;;43.75;20.92;;;;;;;0.45;100.00;92451.56;5039753;28;20056;-77
2023/01/26 01:19:51;;;;;;;51.20;22.55;;;;;;;0.47;100.00;92454.69;5057816;28;20037;-78
2023/01/26 01:22:20;;;;;;;52.13;22.02;;;;;;;0.46;100.00;92451.34;5039806;28;20049;-78
2023/01/26 01:24:45;;;;;;;51.03;21.70;;;;;;;0.48;100.00;92454.47;5057499;28;20053;-77
2023/01/26 01:27:11;;;;;;;43.08;20.67;;;;;;;0.49;100.00;92443.16;5040042;28;20491;-78
2023/01/26 01:29:37;;;;;;;48.20;22.58;;;;;;;0.50;100.00;92449.88;5039295;28;20045;-78
2023/01/26 01:32:02;;;;;;;48.88;21.40;;;;;;;0.52;100.00;92445.28;5056322;28;20052;-78
2023/01/26 01:34:28;;;;;;;43.63;20.77;;;;;;;0.53;100.00;92448.66;5023571;28;20060;-78
2023/01/26 01:36:54;;;;;;;43.30;20.67;;;;;;;0.52;100.00;92440.13;5006853;28;20057;-78
2023/01/26 01:39:20;;;;;;;46.42;21.00;;;;;;;0.53;100.00;92436.53;5068789;28;20051;-78
2023/01/26 01:41:46;;;;;;;53.58;22.15;;;;;;;0.53;100.00;92439.13;5066723;28;20060;-78
2023/01/26 01:44:17;;;;;;;44.28;20.80;;;;;;;0.54;100.00;92435.56;5038485;28;20402;-77
2023/01/26 01:47:01;;;;;;;47.35;21.27;;;;;;;0.54;100.00;92438.13;5036250;28;20071;-77
2023/01/26 01:49:44;;;;;;;47.85;22.13;;;;;;;0.55;100.00;92434.53;5046043;28;20152;-78
2023/01/26 01:52:25;;;;;;;43.33;20.65;;;;;;;0.57;100.00;92436.88;5038694;28;20049;-78
2023/01/26 01:54:57;;;;;;;45.28;20.98;;;;;;;0.56;100.00;92428.38;5058266;28;20053;-78
2023/01/26 01:57:28;;;;;;;49.90;21.05;;;;;;;0.56;100.00;92433.53;5071470;28;20102;-78
2023/01/26 02:00:06;;;;;;;43.33;20.73;;;;;;;0.56;100.00;92422.41;5059673;28;20048;-76
2023/01/26 02:02:39;;;;;;;47.03;19.73;;;;;;;0.55;100.00;92426.78;5058276;28;20047;-78
2023/01/26 02:05:19;;;;;;;40.72;19.63;;;;;;;0.55;100.00;92426.03;5040558;28;20071;-78
2023/01/26 02:07:45;;;;;;;41.92;19.75;;;;;;;0.54;100.00;92430.41;5030878;28;20041;-78
2023/01/26 02:10:17;;;;;;;40.28;17.63;;;;;;;0.53;100.00;92428.81;5023372;28;20067;-77
2023/01/26 02:12:46;;;;;;;41.03;18.85;;;;;;;0.53;100.00;92431.38;5016626;28;20050;-78
2023/01/26 02:15:12;;;;;;;44.15;19.98;;;;;;;0.56;100.00;92427.56;5034896;28;20086;-78
2023/01/26 02:17:38;;;;;;;46.83;20.48;;;;;;;0.56;100.00;92422.41;5045176;28;20044;-78
2023/01/26 02:20:14;;;;;;;36.63;18.85;;;;;;;0.56;100.00;92418.06;5058739;28;20047;-77
2023/01/26 02:22:40;;;;;;;39.33;18.67;;;;;;;0.57;100.00;92418.84;5037628;28;20522;-78
2023/01/26 02:25:32;;;;;;;39.90;19.17;;;;;;;0.56;100.00;92415.50;5039809;28;20103;-77
2023/01/26 02:27:58;;;;;;;57.28;23.88;;;;;;;0.59;100.00;92407.31;5023287;28;20068;-79
2023/01/26 02:30:26;;;;;;;53.80;24.02;;;;;;;0.61;100.00;92405.28;5029518;28;20037;-78
2023/01/26 02:32:52;;;;;;;52.10;23.27;;;;;;;0.59;100.00;92394.44;5038916;28;20048;-78
2023/01/26 02:35:17;;;;;;;51.95;22.27;;;;;;;0.57;100.00;92393.88;5057634;28;20037;-78
2023/01/26 02:37:43;;;;;;;49.72;23.13;;;;;;;0.56;100.00;92387.16;5023309;28;20049;-78
2023/01/26 02:40:29;;;;;;;50.55;23.83;;;;;;;0.63;100.00;92394.75;5024052;28;20495;-77
2023/01/26 02:42:54;;;;;;;54.35;25.10;;;;;;;0.61;100.00;92384.69;5036232;28;20051;-77
2023/01/26 02:45:21;;;;;;;58.65;24.92;;;;;;;0.60;100.00;92383.09;5056869;28;20112;-76
2023/01/26 02:47:47;;;;;;;55.22;24.95;;;;;;;0.59;100.00;92381.56;5038136;28;20057;-77
2023/01/26 02:50:12;;;;;;;54.70;24.33;;;;;;;0.55;100.00;92375.28;5049978;28;20052;-78
2023/01/26 02:52:41;;;;;;;49.67;22.63;;;;;;;0.57;100.00;92372.47;5040869;28;20066;-78
2023/01/26 02:55:23;;;;;;;53.75;23.73;;;;;;;0.56;100.00;92373.47;5027834;28;20072;-78
2023/01/26 02:57:55;;;;;;;47.67;20.95;;;;;;;0.57;100.00;92372.47;5026657;28;20140;-78
2023/01/26 03:00:27;;;;;;;44.80;19.65;;;;;;;0.58;100.00;92372.25;5053595;28;20036;-78
2023/01/26 03:02:56;;;;;;;44.57;19.80;;;;;;;0.59;100.00;92358.38;5045295;28;20045;-78
2023/01/26 03:05:24;;;;;;;46.85;20.00;;;;;;;0.57;100.00;92350.06;5025101;28;20119;-77
2023/01/26 03:07:51;;;;;;;51.00;20.95;;;;;;;0.60;100.00;92352.19;5043586;28;20445;-78
2023/01/26 03:10:19;;;;;;;47.85;20.98;;;;;;;0.61;100.00;92348.63;5049549;28;20038;-77
2023/01/26 03:12:45;;;;;;;45.88;20.85;;;;;;;0.62;100.00;92349.41;5065217;28;20045;-78
2023/01/26 03:27:25;;;;;;;43.97;19.90;;;;;;;0.58;100.00;92343.91;5042971;28;20045;-78
2023/01/26 03:29:37;;;;;;;52.15;21.15;;;;;;;0.59;100.00;92340.34;5038540;28;20052;-78
2023/01/26 03:32:04;;;;;;;47.75;21.25;;;;;;;0.59;100.00;92335.19;5032532;28;20079;-77
2023/01/26 03:34:30;;;;;;;46.00;20.73;;;;;;;0.60;100.00;92335.97;5037260;28;20144;-77
2023/01/26 03:36:56;;;;;;;46.85;21.08;;;;;;;0.59;100.00;92330.03;5038113;28;20049;-77
2023/01/26 03:56:31;;;;;;;44.88;20.20;;;;;;;0.60;100.00;92329.00;5059125;28;20167;-77
2023/01/26 03:59:07;;;;;;;49.30;20.65;;;;;;;0.61;100.00;92328.00;5047636;28;20059;-78
2023/01/26 04:01:35;;;;;;;45.30;19.50;;;;;;;0.60;100.00;92323.84;5030528;28;20048;-78
2023/01/26 04:09:33;;;;;;;49.47;20.60;;;;;;;0.87;100.00;92317.38;5040295;28;20037;-77
2023/01/26 04:12:00;;;;;;;49.55;20.88;;;;;;;0.77;100.00;92315.41;5041503;28;20035;-77
2023/01/26 04:22:44;;;;;;;45.25;19.73;;;;;;;0.64;100.00;92300.22;5038779;28;20098;-78
2023/01/26 04:25:18;;;;;;;39.83;17.43;;;;;;;0.63;100.00;92291.69;5022506;28;20069;-77
2023/01/26 04:27:44;;;;;;;36.63;16.85;;;;;;;0.64;100.00;92300.22;5038072;28;20049;-77
2023/01/26 04:30:13;;;;;;;37.45;17.00;;;;;;;0.66;100.00;92288.69;5038344;28;20045;-78
2023/01/26 04:32:39;;;;;;;38.10;17.75;;;;;;;0.67;100.00;92294.59;5037814;28;20041;-78
2023/01/26 04:35:07;;;;;;;35.35;16.88;;;;;;;0.66;100.00;92280.16;5037766;28;20040;-77
2023/01/26 04:37:33;;;;;;;40.40;17.88;;;;;;;0.65;100.00;92281.16;5021157;28;20088;-79
2023/01/26 04:40:00;;;;;;;44.55;18.27;;;;;;;0.65;100.00;92276.78;5041178;28;20048;-78
2023/01/26 04:42:26;;;;;;;42.83;17.98;;;;;;;0.64;100.00;92272.66;5058360;28;20045;-78
2023/01/26 04:44:53;;;;;;;43.95;17.00;;;;;;;0.64;100.00;92270.09;5040279;28;20052;-78
2023/01/26 04:47:20;;;;;;;42.28;17.65;;;;;;;0.66;100.00;92272.44;5041889;28;20112;-78
2023/01/26 04:49:46;;;;;;;38.20;16.45;;;;;;;0.70;100.00;92273.53;5038298;28;20029;-78
2023/01/26 04:52:14;;;;;;;38.83;18.13;;;;;;;0.64;100.00;92264.94;5045768;28;20037;-78
2023/01/26 04:54:40;;;;;;;40.92;17.95;;;;;;;0.64;100.00;92264.94;5061509;28;20028;-78
2023/01/26 04:57:06;;;;;;;39.25;18.70;;;;;;;0.61;100.00;92261.03;5059749;28;20040;-77
2023/01/26 04:59:33;;;;;;;44.33;18.23;;;;;;;0.61;100.00;92263.59;5038818;28;20103;-76
2023/01/26 05:02:00;;;;;;;40.63;18.23;;;;;;;0.63;100.00;92263.34;5033277;28;20511;-76
2023/01/26 05:04:25;;;;;;;39.70;18.27;;;;;;;0.61;100.00;92261.03;5052767;28;20043;-76
2023/01/26 05:06:52;;;;;;;36.08;16.92;;;;;;;0.60;100.00;92264.59;5035074;28;20072;-76
2023/01/26 05:09:18;;;;;;;39.05;17.02;;;;;;;0.60;100.00;92259.44;5020832;28;20357;-76
2023/01/26 05:11:48;;;;;;;41.10;17.25;;;;;;;0.58;100.00;92258.91;5037705;28;20132;-77
2023/01/26 05:14:34;;;;;;;33.63;14.57;;;;;;;0.67;100.00;92254.16;5035662;28;20044;-76
2023/01/26 05:17:19;;;;;;;33.85;15.73;;;;;;;0.65;100.00;92252.81;5035032;28;20052;-75
2023/01/26 05:19:49;;;;;;;37.38;15.43;;;;;;;0.72;100.00;92254.28;5035626;28;20045;-76
2023/01/26 05:22:31;;;;;;;32.53;16.00;;;;;;;0.76;100.00;92257.16;5035372;28;20583;-79
2023/01/26 05:25:19;;;;;;;34.53;15.48;;;;;;;0.71;100.00;92260.41;5033595;28;20132;-77
2023/01/26 05:27:52;;;;;;;36.85;14.23;;;;;;;0.70;100.00;92252.91;5034831;28;20140;-77
2023/01/26 05:30:18;;;;;;;28.63;12.65;;;;;;;0.63;100.00;92247.91;5052675;28;20103;-78
2023/01/26 05:32:44;;;;;;;25.88;11.85;;;;;;;0.70;100.00;92247.75;5034816;28;20368;-78
2023/01/26 05:35:11;;;;;;;25.05;12.52;;;;;;;0.67;100.00;92249.00;5016609;28;20053;-77
2023/01/26 05:37:37;;;;;;;33.38;12.90;;;;;;;0.74;100.00;92246.28;5018544;28;20155;-76
2023/01/26 05:40:03;;;;;;;26.90;12.55;;;;;;;0.67;100.00;92248.22;5014870;28;20041;-77
2023/01/26 05:42:31;;;;;;;26.95;12.75;;;;;;;0.61;100.00;92244.78;5037694;28;20060;-79
2023/01/26 05:45:12;;;;;;;30.83;13.90;;;;;;;0.56;100.00;92242.91;5004965;28;20028;-77
2023/01/26 05:47:39;;;;;;;27.90;12.43;;;;;;;0.57;100.00;92251.41;5001347;28;20041;-78
2023/01/26 05:50:05;;;;;;;31.20;13.68;;;;;;;0.56;100.00;92253.22;5033621;28;20043;-78
2023/01/26 05:52:33;;;;;;;30.38;14.57;;;;;;;0.55;100.00;92251.63;5057798;28;20095;-79
2023/01/26 05:54:59;;;;;;;30.67;14.50;;;;;;;0.55;100.00;92250.88;5045107;28;20062;-79
2023/01/26 05:57:24;;;;;;;30.20;14.38;;;;;;;0.53;100.00;92251.09;5059390;28;20174;-81
2023/01/26 05:59:57;;;;;;;34.55;13.95;;;;;;;0.57;100.00;92254.00;5006436;28;20156;-78
2023/01/26 06:02:26;;;;;;;30.92;13.02;;;;;;;0.58;100.00;92253.75;5027801;28;20114;-78
2023/01/26 06:04:53;;;;;;;29.05;13.02;;;;;;;0.55;100.00;92245.72;5044940;28;20140;-77
2023/01/26 06:07:21;;;;;;;28.40;13.02;;;;;;;0.59;100.00;92246.81;5027103;28;20423;-79
2023/01/26 06:10:04;;;;;;;;;;;;;;;0.62;100.00;92252.28;5021891;28;20072;-79
2023/01/26 06:13:01;;;;;;;28.38;12.65;;;;;;;0.61;100.00;92249.94;5029306;28;19912;-77
2023/01/26 06:15:36;;;;;;;27.45;12.90;;;;;;;0.59;100.00;92251.97;5039026;28;20083;-77
2023/01/26 06:18:02;;;;;;;28.27;13.85;;;;;;;0.59;100.00;92246.81;5022092;28;20049;-77
2023/01/26 06:20:28;;;;;;;31.40;13.63;;;;;;;0.57;100.00;92243.69;5038865;28;20140;-77
2023/01/26 06:23:00;;;;;;;28.52;13.68;;;;;;;0.55;100.00;92246.47;5039000;28;20110;-77
2023/01/26 06:25:27;;;;;;;27.02;13.25;;;;;;;0.55;100.00;92246.47;5039034;28;20060;-77
2023/01/26 06:27:56;;;;;;;28.80;13.65;;;;;;;0.55;100.00;92245.72;5039213;28;20055;-76
2023/01/26 06:30:25;;;;;;;30.15;11.77;;;;;;;0.58;100.00;92243.44;5038630;28;20612;-77
2023/01/26 06:32:52;;;;;;;30.25;12.63;;;;;;;0.58;100.00;92238.28;5037042;28;20547;-77
2023/01/26 06:35:18;;;;;;;28.13;10.43;;;;;;;0.60;100.00;92233.69;5053782;28;20499;-77
2023/01/26 06:37:47;;;;;;;25.65;11.80;;;;;;;0.66;100.00;92237.16;5037331;28;20081;-78
2023/01/26 06:40:13;;;;;;;24.95;12.50;;;;;;;0.66;100.00;92238.94;5037446;28;20498;-77
2023/01/26 06:42:38;;;;;;;22.02;10.50;;;;;;;0.62;100.00;92241.97;5038288;28;20044;-77
2023/01/26 06:45:04;;;;;;;22.45;11.18;;;;;;;0.79;100.00;92243.81;5005422;28;20198;-78
2023/01/26 06:47:30;;;;;;;16.05;7.68;;;;;;;1.07;99.44;92242.97;5029010;28;20037;-77
2023/01/26 06:49:55;;;;;;;23.90;10.73;;;;;;;1.00;98.31;92237.97;5056275;28;20056;-77
2023/01/26 06:52:26;;;;;;;25.55;10.90;;;;;;;0.82;100.00;92235.63;5057084;28;20041;-77
2023/01/26 06:54:57;;;;;;;21.67;10.55;;;;;;;0.79;100.00;92239.44;5056109;28;20039;-77
2023/01/26 06:57:43;;;;;;;25.02;12.02;;;;;;;0.71;100.00;92239.03;5060011;28;20361;-77
2023/01/26 07:00:33;;;;;;;31.55;12.73;;;;;;;0.65;100.00;92230.41;5037733;28;20048;-77
2023/01/26 07:03:19;;;;;;;21.50;10.38;;;;;;;0.64;100.00;92239.16;5045557;28;20119;-78
2023/01/26 07:05:45;;;;;;;21.20;11.15;;;;;;;0.61;100.00;92242.22;5055633;28;20121;-77
2023/01/26 07:08:10;;;;;;;26.27;11.93;;;;;;;0.58;100.00;92235.72;5055366;28;20032;-77
2023/01/26 07:10:36;;;;;;;24.60;12.15;;;;;;;0.55;100.00;92231.03;5055671;28;20048;-78
2023/01/26 07:13:04;;;;;;;23.13;10.80;;;;;;;0.53;100.00;92230.47;5055984;28;20044;-77
2023/01/26 07:15:30;;;;;;;25.27;13.07;;;;;;;0.53;100.00;92227.91;5055402;28;20049;-77
2023/01/26 07:17:56;;;;;;;28.35;14.60;;;;;;;0.56;100.00;92229.22;5038535;28;20120;-77
2023/01/26 07:20:22;;;;;;;30.77;13.65;;;;;;;0.56;100.00;92232.59;5073075;28;20051;-77
2023/01/26 07:22:48;;;;;;;25.58;11.77;;;;;;;0.56;100.00;92235.19;5055139;28;20418;-78
2023/01/26 07:25:15;;;;;;;31.45;13.77;;;;;;;0.56;100.00;92227.47;5053017;28;20499;-77
2023/01/26 07:27:41;;;;;;;25.10;12.88;;;;;;;0.59;100.00;92224.41;5035213;28;20136;-77
2023/01/26 07:30:07;;;;;;;23.95;10.93;;;;;;;0.60;100.00;92232.91;5051128;28;20069;-77
2023/01/26 07:32:33;;;;;;;22.88;11.23;;;;;;;0.61;100.00;92235.25;5056467;28;20414;-77
2023/01/26 07:34:58;;;;;;;30.23;12.82;;;;;;;0.62;100.00;92225.75;5049665;28;20075;-77
2023/01/26 07:37:28;;;;;;;26.23;11.88;;;;;;;0.61;100.00;92226.75;5042389;28;20040;-77
2023/01/26 07:39:57;;;;;;;27.98;12.32;;;;;;;0.65;100.00;92227.84;5058222;28;20044;-78
2023/01/26 07:42:22;;;;;;;32.70;11.90;;;;;;;0.68;100.00;92227.41;5042191;28;20037;-78
2023/01/26 07:44:59;;;;;;;26.45;12.35;;;;;;;0.67;100.00;92228.41;5026811;28;20071;-77
2023/01/26 07:47:25;;;;;;;26.10;12.27;;;;;;;0.69;100.00;92221.22;5059916;28;20041;-77
2023/01/26 07:49:50;;;;;;;27.13;12.73;;;;;;;0.72;100.00;92220.78;5054913;28;20038;-78
2023/01/26 07:52:16;;;;;;;25.95;13.00;;;;;;;0.74;100.00;92223.09;5056963;28;20257;-77
2023/01/26 07:54:42;;;;;;;25.75;12.52;;;;;;;0.76;100.00;92221.84;5053402;28;20573;-77
2023/01/26 07:57:07;;;;;;;33.47;13.13;;;;;;;0.79;100.00;92225.78;5041661;28;20055;-77
2023/01/26 07:59:33;;;;;;;27.88;11.95;;;;;;;0.85;100.00;92224.06;5040721;28;20041;-77
2023/01/26 08:01:59;;;;;;;26.92;11.88;;;;;;;0.91;100.00;92217.97;5057282;28;20044;-77
2023/01/26 08:04:24;;;;;;;28.77;12.15;;;;;;;0.92;100.00;92220.31;5057222;28;20064;-77
2023/01/26 08:06:51;;;;;;;23.33;11.55;;;;;;;0.92;100.00;92219.53;5035492;28;20055;-77
2023/01/26 08:09:16;;;;;;;24.13;12.02;;;;;;;0.94;100.00;92218.28;5041690;28;20383;-77
2023/01/26 08:11:42;;;;;;;24.85;11.48;;;;;;;0.94;100.00;92218.28;5050123;28;20060;-78
2023/01/26 08:14:08;;;;;;;21.90;11.13;;;;;;;0.95;99.55;92214.69;5056261;28;20585;-77
2023/01/26 08:16:33;;;;;;;27.88;11.57;;;;;;;0.96;99.29;92220.63;5058604;28;20048;-77
2023/01/26 08:18:59;;;;;;;26.35;11.82;;;;;;;0.95;99.40;92219.84;5038148;28;20047;-77
2023/01/26 08:21:25;;;;;;;27.98;11.60;;;;;;;0.93;98.68;92216.72;5035277;28;20491;-77
2023/01/26 08:23:50;;;;;;;30.20;13.23;;;;;;;0.94;98.11;92218.28;5052743;28;20045;-77
2023/01/26 08:26:18;;;;;;;23.92;11.77;;;;;;;1.00;98.66;92226.88;5053346;28;20056;-77
2023/01/26 08:28:44;;;;;;;22.65;11.18;;;;;;;1.01;98.79;92226.66;5053167;28;20481;-76
2023/01/26 08:31:19;;;;;;;21.33;10.27;;;;;;;0.96;95.33;92229.13;5052636;28;20396;-77
2023/01/26 08:33:49;;;;;;;21.33;10.60;;;;;;;1.00;94.72;92232.81;5049462;28;20503;-77
2023/01/26 08:36:15;;;;;;;26.02;10.73;;;;;;;0.98;96.14;92227.09;5050888;28;20055;-77
2023/01/26 08:38:41;;;;;;;23.00;10.57;;;;;;;1.03;97.82;92227.19;5035637;28;20091;-77
2023/01/26 08:41:07;;;;;;;23.83;11.02;;;;;;;1.11;97.99;92226.03;5052949;28;20041;-77
2023/01/26 08:43:34;;;;;;;26.17;11.63;;;;;;;1.18;97.66;92223.28;5052970;28;20029;-77
2023/01/26 08:46:00;;;;;;;23.73;11.18;;;;;;;1.22;97.55;92224.41;5046155;28;20047;-76
2023/01/26 08:48:25;;;;;;;23.92;11.57;;;;;;;1.24;97.35;92219.78;5053605;28;20099;-77
2023/01/26 08:50:55;;;;;;;23.23;10.68;;;;;;;1.30;96.42;92223.97;5053956;28;20044;-77
2023/01/26 08:53:22;;;;;;;24.08;10.85;;;;;;;1.30;95.94;92216.25;5051943;28;20080;-77
2023/01/26 08:55:47;;;;;;;24.08;11.30;;;;;;;1.42;95.20;92229.06;5045597;28;20047;-77
2023/01/26 08:58:13;;;;;;;24.95;11.02;;;;;;;1.47;95.12;92228.38;5043433;28;20046;-77
2023/01/26 09:00:38;;;;;;;23.08;11.00;;;;;;;1.40;91.74;92216.41;5040321;28;20067;-77
2023/01/26 09:03:04;;;;;;;23.48;10.95;;;;;;;1.30;91.87;92220.63;5051068;28;20053;-77
2023/01/26 09:05:33;;;;;;;25.05;11.07;;;;;;;1.25;92.07;92223.91;5030950;28;20049;-77
2023/01/26 09:07:58;;;;;;;25.67;10.95;;;;;;;1.41;93.58;92223.13;5037019;28;20088;-77
2023/01/26 09:10:24;;;;;;;22.73;10.88;;;;;;;1.35;93.43;92216.34;5039955;28;20044;-76
2023/01/26 09:12:49;;;;;;;27.35;11.35;;;;;;;1.56;92.23;92203.72;5057810;28;20055;-78
2023/01/26 09:15:15;;;;;;;23.92;10.85;;;;;;;1.75;91.06;92212.75;5040221;28;20407;-78
2023/01/26 09:17:42;;;;;;;23.08;10.93;;;;;;;1.75;91.16;92211.97;5056867;28;20045;-78
2023/01/26 09:20:09;;;;;;;23.83;11.40;;;;;;;1.66;91.96;92211.59;5039632;28;20159;-78
2023/01/26 09:22:35;;;;;;;19.70;8.80;;;;;;;1.85;89.71;92206.94;5056839;28;20514;-78
2023/01/26 09:25:00;;;;;;;25.52;11.23;;;;;;;1.77;90.40;92207.34;5056437;28;20067;-78
2023/01/26 09:27:26;;;;;;;16.70;8.25;;;;;;;1.79;90.46;92213.06;5054931;28;20059;-78
2023/01/26 09:29:52;;;;;;;9.20;5.20;;;;;;;1.83;90.58;92208.97;5055624;28;20503;-78
2023/01/26 09:32:18;;;;;;;24.13;11.88;;;;;;;1.70;96.29;92210.09;5057402;28;20589;-78
2023/01/26 09:34:44;;;;;;;18.25;8.18;;;;;;;1.80;95.64;92206.84;5036882;28;20105;-77
2023/01/26 09:37:10;;;;;;;21.02;10.48;;;;;;;1.82;94.36;92210.78;5027121;28;20076;-78
2023/01/26 09:39:35;;;;;;;25.83;11.27;;;;;;;1.70;94.54;92214.50;5042520;28;20111;-78
2023/01/26 09:42:04;;;;;;;21.90;10.40;;;;;;;1.95;93.03;92212.22;5056944;28;20048;-78
2023/01/26 09:44:38;;;;;;;24.63;12.13;;;;;;;1.98;92.73;92213.53;5058680;28;20037;-78
2023/01/26 09:47:27;;;;;;;24.02;11.35;;;;;;;1.95;92.13;92209.63;5049513;28;20037;-78
2023/01/26 09:49:59;;;;;;;22.02;10.57;;;;;;;2.03;90.17;92213.63;5059091;28;20037;-78
2023/01/26 09:52:34;;;;;;;28.83;12.00;;;;;;;2.20;91.71;92216.13;5042559;28;20067;-78
2023/01/26 09:55:05;;;;;;;29.85;12.70;;;;;;;2.28;93.82;92218.28;5058478;28;20033;-78
2023/01/26 09:57:48;;;;;;;20.63;9.75;;;;;;;2.32;89.81;92216.78;5049935;28;20049;-78
2023/01/26 10:00:14;;;;;;;16.52;8.20;;;;;;;2.34;91.91;92216.53;5055917;28;20055;-78
2023/01/26 10:03:07;;;;;;;15.18;7.85;;;;;;;2.43;92.21;92213.28;5059894;28;20033;-78
2023/01/26 10:05:48;;;;;;;35.28;12.10;;;;;;;2.24;92.81;92212.81;5057145;28;20058;-78
2023/01/26 10:08:34;;;;;;;25.88;10.48;;;;;;;2.31;86.34;92202.31;5057407;28;20091;-78
2023/01/26 10:11:15;;;;;;;25.55;11.50;;;;;;;2.26;90.25;92203.03;5056828;28;20045;-78
2023/01/26 10:13:51;;;;;;;26.55;11.23;;;;;;;2.49;87.29;92203.78;5050939;28;20052;-78
2023/01/26 10:16:17;;;;;;;18.17;9.35;;;;;;;2.61;84.88;92199.25;5041073;28;20040;-78
2023/01/26 10:19:05;;;;;;;21.60;10.57;;;;;;;2.62;87.13;92200.81;5034844;28;20066;-78
2023/01/26 10:21:37;;;;;;;21.73;9.80;;;;;;;2.76;87.46;92196.03;5056078;28;20045;-78
2023/01/26 10:24:04;;;;;;;25.33;10.73;;;;;;;2.81;85.71;92197.88;5062832;28;20402;-78
2023/01/26 10:26:32;;;;;;;25.52;12.60;;;;;;;3.36;88.03;92189.00;5079809;28;20097;-78
2023/01/26 10:28:58;;;;;;;26.20;12.25;;;;;;;3.79;83.97;92182.00;5060092;28;20045;-78
2023/01/26 10:31:26;;;;;;;26.58;12.30;;;;;;;4.00;81.53;92174.31;5077646;28;20048;-78
2023/01/26 10:33:58;;;;;;;22.58;10.95;;;;;;;4.31;81.14;92180.41;5064085;28;20048;-79
2023/01/26 10:36:24;;;;;;;25.60;12.02;;;;;;;4.13;78.57;92176.47;5040105;28;20191;-78
2023/01/26 10:38:51;;;;;;;25.10;10.43;;;;;;;4.20;81.29;92177.00;5058976;28;20060;-78
2023/01/26 10:41:26;;;;;;;24.38;12.80;;;;;;;4.51;80.42;92174.50;5060055;28;20119;-78
2023/01/26 10:44:17;;;;;;;28.25;13.13;;;;;;;4.42;80.23;92165.66;5060271;28;20055;-78
2023/01/26 10:46:43;;;;;;;25.30;12.50;;;;;;;4.32;80.58;92163.81;5079412;28;20104;-79
2023/01/26 10:49:08;;;;;;;16.15;8.20;;;;;;;4.20;80.03;92161.44;5078530;28;20123;-78
2023/01/26 10:51:38;;;;;;;27.23;13.23;;;;;;;3.86;82.40;92155.88;5075985;28;20068;-78
2023/01/26 10:54:19;;;;;;;22.70;10.32;;;;;;;3.79;83.29;92150.16;5078924;28;20045;-78
2023/01/26 10:56:54;;;;;;;27.08;11.95;;;;;;;4.28;84.10;92145.41;5060715;28;20036;-78
2023/01/26 10:59:47;;;;;;;18.90;9.95;;;;;;;4.47;81.16;92140.53;5078355;28;20036;-78
2023/01/26 11:02:15;;;;;;;;;;;;;;;4.72;79.81;92144.97;5069944;28;20112;-79
2023/01/26 11:05:13;;;;;;;20.13;9.75;;;;;;;4.65;79.73;92141.06;5057867;28;20390;-78
2023/01/26 11:07:44;;;;;;;28.48;13.25;;;;;;;4.95;80.23;92127.34;5059314;28;20043;-78
2023/01/26 11:10:32;;;;;;;14.38;7.38;;;;;;;5.45;75.70;92132.72;5063062;28;20055;-78
2023/01/26 11:13:19;;;;;;;27.08;12.25;;;;;;;5.86;75.36;92124.84;5066608;28;20037;-79
2023/01/26 11:15:51;;;;;;;32.42;12.18;;;;;;;6.50;71.82;92126.66;5062509;28;20053;-78
2023/01/26 11:18:32;;;;;;;22.23;8.45;;;;;;;7.00;64.54;92118.75;5081346;28;20112;-79
2023/01/26 11:21:07;;;;;;;15.30;8.10;;;;;;;6.97;65.55;92116.72;5084037;28;20040;-78
2023/01/26 11:23:45;;;;;;;27.92;12.50;;;;;;;6.43;66.80;92111.34;5058107;28;20056;-79
2023/01/26 11:26:10;;;;;;;23.67;11.50;;;;;;;6.50;66.60;92110.28;5063131;28;20036;-79
2023/01/26 11:29:07;;;;;;;25.85;13.45;;;;;;;6.72;65.68;92102.84;5063941;28;20115;-78
2023/01/26 11:31:42;;;;;;;18.33;8.95;;;;;;;6.92;64.72;92093.34;5064752;28;20039;-78
2023/01/26 11:34:46;;;;;;;19.95;9.60;;;;;;;6.37;65.01;92091.63;5044625;28;20041;-79
2023/01/26 11:37:35;;;;;;;19.50;10.25;;;;;;;6.14;67.66;92092.28;5043025;28;20041;-78
2023/01/26 11:40:11;;;;;;;30.88;13.32;;;;;;;6.07;68.59;92089.97;5041325;28;20046;-79
2023/01/26 11:42:51;;;;;;;22.38;9.93;;;;;;;6.56;67.84;92086.56;5026200;28;20128;-78
2023/01/26 11:45:23;;;;;;;16.63;8.52;;;;;;;6.44;64.61;92081.72;5020704;28;20056;-78
2023/01/26 11:48:04;;;;;;;;;;;;;;;5.60;69.54;92073.75;5043280;28;20130;-78
2023/01/26 11:51:09;;;;;;;24.45;11.40;;;;;;;5.61;68.85;92072.72;5024168;28;19913;-78
2023/01/26 11:53:58;;;;;;;28.88;12.52;;;;;;;5.56;67.76;92070.16;5010832;28;20037;-78
2023/01/26 11:56:40;;;;;;;21.10;10.43;;;;;;;5.35;70.09;92066.06;5038983;28;20512;-78
2023/01/26 11:59:16;;;;;;;15.30;8.30;;;;;;;5.49;68.82;92056.66;5061182;28;20127;-78
2023/01/26 12:01:57;;;;;;;27.15;13.50;;;;;;;5.55;68.52;92055.59;5062196;28;20098;-78
2023/01/26 12:04:23;;;;;;;18.67;8.05;;;;;;;5.42;68.30;92050.97;5061218;28;20219;-78
2023/01/26 12:07:05;;;;;;;17.10;9.52;;;;;;;5.68;67.38;92049.06;5035757;28;20040;-78
2023/01/26 12:09:41;;;;;;;18.43;9.47;;;;;;;5.20;69.15;92049.50;5020386;28;20081;-78
2023/01/26 12:12:31;;;;;;;23.85;12.27;;;;;;;5.40;69.21;92042.66;5021051;28;20277;-78
2023/01/26 12:15:05;;;;;;;21.92;10.48;;;;;;;5.61;67.36;92031.19;5029166;28;20173;-77
2023/01/26 12:17:49;;;;;;;21.13;10.55;;;;;;;5.58;67.92;92023.94;5041215;28;20041;-78
2023/01/26 12:20:17;;;;;;;17.67;9.65;;;;;;;5.52;67.62;92027.59;5039183;28;20096;-78